Time;durP1;ratioP1;P1;durP2;ratioP2;P2;SDS_P1;SDS_P2;PMS_P1;PMS_P2;Temp;Humidity;BMP_temperature;BMP_pressure;BME280_temperature;BME280_humidity;BME280_pressure;Samples;Min_cycle;Max_cycle;Signal;HPM_P1;HPM_P2
2023/08/20 00:01:28;;;;;;;9.15;2.80;;;18.30;99.90;;;;;;4878252;29;20597;-68
2023/08/20 00:03:55;;;;;;;13.43;3.50;;;18.30;99.90;;;;;;4877532;29;20052;-75
2023/08/20 00:06:22;;;;;;;14.07;3.42;;;18.20;99.90;;;;;;4878755;29;20128;-69
2023/08/20 00:08:48;;;;;;;10.73;3.10;;;18.20;99.90;;;;;;4863901;29;20057;-68
2023/08/20 00:11:14;;;;;;;9.18;2.90;;;18.20;99.90;;;;;;4861583;29;20312;-73
2023/08/20 00:13:41;;;;;;;12.35;3.97;;;18.20;99.90;;;;;;4876380;29;20053;-69
2023/08/20 00:16:07;;;;;;;11.93;3.75;;;18.10;99.90;;;;;;4877182;29;20057;-68
2023/08/20 00:18:33;;;;;;;13.63;3.08;;;18.10;99.90;;;;;;4878355;29;20051;-69
2023/08/20 00:20:59;;;;;;;8.43;3.13;;;18.10;99.90;;;;;;4879183;29;20133;-69
2023/08/20 00:23:26;;;;;;;9.10;3.00;;;18.10;99.90;;;;;;4877039;29;20400;-68
2023/08/20 00:25:52;;;;;;;9.73;3.00;;;18.10;99.90;;;;;;4878606;29;20080;-67
2023/08/20 00:28:20;;;;;;;9.90;3.10;;;18.10;99.90;;;;;;4879028;29;20091;-68
2023/08/20 00:30:46;;;;;;;9.30;3.10;;;18.00;99.90;;;;;;4878298;29;20049;-68
2023/08/20 00:33:13;;;;;;;7.07;2.72;;;18.00;99.90;;;;;;4877303;29;20069;-68
2023/08/20 00:35:38;;;;;;;11.77;3.28;;;18.00;99.90;;;;;;4878308;29;20048;-68
2023/08/20 00:38:05;;;;;;;7.97;3.00;;;18.00;99.90;;;;;;4876639;29;20100;-68
2023/08/20 00:40:31;;;;;;;8.75;3.53;;;18.00;99.90;;;;;;4878201;29;20140;-69
2023/08/20 00:42:56;;;;;;;10.20;3.08;;;18.00;99.90;;;;;;4877289;29;20140;-69
2023/08/20 00:45:23;;;;;;;9.15;2.95;;;17.90;99.90;;;;;;4877363;29;20136;-69
2023/08/20 00:47:49;;;;;;;10.45;3.53;;;17.90;99.90;;;;;;4881802;29;20056;-68
2023/08/20 00:50:16;;;;;;;9.20;3.10;;;17.80;99.90;;;;;;4885257;29;20048;-68
2023/08/20 00:52:42;;;;;;;7.75;3.05;;;17.80;99.90;;;;;;4876792;29;20072;-68
2023/08/20 00:55:10;;;;;;;12.82;3.20;;;17.80;99.90;;;;;;4877051;29;20508;-69
2023/08/20 00:57:39;;;;;;;10.18;3.28;;;17.80;99.90;;;;;;4878045;29;20049;-68
2023/08/20 01:00:09;;;;;;;9.40;3.35;;;17.70;99.90;;;;;;4874915;29;20049;-69
2023/08/20 01:02:35;;;;;;;11.13;3.55;;;17.70;99.90;;;;;;4877831;29;20452;-68
2023/08/20 01:05:02;;;;;;;10.00;3.55;;;17.70;99.90;;;;;;4861207;29;20120;-68
2023/08/20 01:07:59;;;;;;;8.95;3.17;;;17.60;99.90;;;;;;4867494;29;20053;-68
2023/08/20 01:10:52;;;;;;;11.27;3.65;;;17.60;99.90;;;;;;4865695;29;20452;-68
2023/08/20 01:13:18;;;;;;;8.45;3.35;;;17.60;99.90;;;;;;4877004;29;20379;-68
2023/08/20 01:15:44;;;;;;;8.15;3.35;;;17.60;99.90;;;;;;4878034;29;20075;-68
2023/08/20 01:18:10;;;;;;;9.55;3.47;;;17.50;99.90;;;;;;4877808;29;20519;-68
2023/08/20 01:20:46;;;;;;;7.68;2.67;;;17.50;99.90;;;;;;4865066;29;20054;-68
2023/08/20 01:23:14;;;;;;;8.38;3.03;;;17.50;99.90;;;;;;4878810;29;20045;-68
2023/08/20 01:25:52;;;;;;;8.13;2.78;;;17.50;99.90;;;;;;4877947;29;20048;-69
2023/08/20 01:28:19;;;;;;;10.48;3.72;;;17.50;99.90;;;;;;4860975;29;20067;-68
2023/08/20 01:30:46;;;;;;;11.95;3.50;;;17.40;99.90;;;;;;4880220;29;20053;-68
2023/08/20 01:33:12;;;;;;;10.95;3.33;;;17.40;99.90;;;;;;4882926;29;20052;-68
2023/08/20 01:35:38;;;;;;;8.68;3.13;;;17.40;99.90;;;;;;4885049;29;20045;-68
2023/08/20 01:38:04;;;;;;;8.60;2.97;;;17.40;99.90;;;;;;4868420;29;20053;-70
2023/08/20 01:40:31;;;;;;;8.63;3.03;;;17.40;99.90;;;;;;4876199;29;20465;-68
2023/08/20 01:42:57;;;;;;;10.60;3.10;;;17.40;99.90;;;;;;4875237;29;20510;-68
2023/08/20 01:45:23;;;;;;;8.80;3.05;;;17.40;99.90;;;;;;4881939;29;20075;-67
2023/08/20 01:47:49;;;;;;;7.93;2.83;;;17.30;99.90;;;;;;4890628;29;20041;-68
2023/08/20 01:50:15;;;;;;;8.85;3.35;;;17.30;99.90;;;;;;4881056;29;20057;-68
2023/08/20 01:52:40;;;;;;;7.85;3.15;;;17.30;99.90;;;;;;4884321;29;20407;-68
2023/08/20 01:55:06;;;;;;;10.30;2.92;;;17.30;99.90;;;;;;4877180;29;20056;-67
2023/08/20 01:57:32;;;;;;;9.05;3.20;;;17.30;99.90;;;;;;4876035;29;20048;-68
2023/08/20 01:59:58;;;;;;;9.85;3.53;;;17.30;99.90;;;;;;4876823;29;20056;-68
2023/08/20 02:02:24;;;;;;;8.65;3.22;;;17.30;99.90;;;;;;4876659;29;20045;-68
2023/08/20 02:04:50;;;;;;;9.80;3.00;;;17.30;99.90;;;;;;4877150;29;20421;-68
2023/08/20 02:07:16;;;;;;;8.50;3.08;;;17.30;99.90;;;;;;4884803;29;20132;-68
2023/08/20 02:09:42;;;;;;;11.23;3.38;;;17.30;99.90;;;;;;4865892;29;20456;-68
2023/08/20 02:12:08;;;;;;;8.15;3.15;;;17.30;99.90;;;;;;4885056;29;20116;-69
2023/08/20 02:14:35;;;;;;;8.13;3.22;;;17.30;99.90;;;;;;4887952;29;20044;-68
2023/08/20 02:17:01;;;;;;;6.40;3.08;;;17.30;99.90;;;;;;4885896;29;20044;-68
2023/08/20 02:19:27;;;;;;;8.25;3.00;;;17.20;99.90;;;;;;4882346;29;20083;-68
2023/08/20 02:21:53;;;;;;;11.40;3.30;;;17.20;99.90;;;;;;4899220;29;20482;-67
2023/08/20 02:24:19;;;;;;;9.77;3.60;;;17.20;99.90;;;;;;4891157;29;20055;-67
2023/08/20 02:26:45;;;;;;;12.05;3.90;;;17.20;99.90;;;;;;4882780;29;20136;-67
2023/08/20 02:29:10;;;;;;;15.32;4.40;;;17.20;99.90;;;;;;4898083;29;20100;-68
2023/08/20 02:31:36;;;;;;;9.05;4.30;;;17.20;99.90;;;;;;4866735;29;20648;-68
2023/08/20 02:34:02;;;;;;;9.80;4.50;;;17.20;99.90;;;;;;4897485;29;20488;-68
2023/08/20 02:36:28;;;;;;;8.25;3.60;;;17.20;99.90;;;;;;4886063;29;20041;-68
2023/08/20 02:38:53;;;;;;;16.10;5.30;;;17.20;99.90;;;;;;4892419;29;20037;-68
2023/08/20 02:41:19;;;;;;;10.55;4.38;;;17.20;99.90;;;;;;4897423;29;20055;-72
2023/08/20 02:43:45;;;;;;;12.52;5.22;;;17.10;99.90;;;;;;4885051;29;20164;-70
2023/08/20 02:46:11;;;;;;;13.18;4.50;;;17.10;99.90;;;;;;4906102;29;20060;-67
2023/08/20 02:48:37;;;;;;;9.43;4.30;;;17.10;99.90;;;;;;4886273;29;20092;-68
2023/08/20 02:51:03;;;;;;;12.85;4.38;;;17.10;99.90;;;;;;4880530;29;20127;-68
2023/08/20 02:53:29;;;;;;;8.80;3.88;;;17.10;99.90;;;;;;4897126;29;20056;-68
2023/08/20 02:55:56;;;;;;;10.52;4.57;;;17.10;99.90;;;;;;4881495;29;20045;-68
2023/08/20 02:58:22;;;;;;;12.65;4.93;;;17.10;99.90;;;;;;4885042;29;20389;-74
2023/08/20 03:00:48;;;;;;;9.35;4.32;;;17.10;99.90;;;;;;4892011;29;20064;-68
2023/08/20 03:03:14;;;;;;;10.20;4.70;;;17.10;99.90;;;;;;4897567;29;20170;-68
2023/08/20 03:05:40;;;;;;;10.77;4.78;;;17.10;99.90;;;;;;4892752;29;20924;-68
2023/08/20 03:08:06;;;;;;;17.05;5.55;;;17.10;99.90;;;;;;4891874;29;20135;-68
2023/08/20 03:10:32;;;;;;;11.65;5.57;;;17.10;99.90;;;;;;4872403;29;20041;-68
2023/08/20 03:12:59;;;;;;;15.02;5.82;;;17.10;99.90;;;;;;4895432;29;20051;-67
2023/08/20 03:15:25;;;;;;;17.27;5.63;;;17.10;99.90;;;;;;4895904;29;20048;-68
2023/08/20 03:17:51;;;;;;;11.68;5.35;;;17.10;99.90;;;;;;4895861;29;20048;-68
2023/08/20 03:20:16;;;;;;;13.27;5.57;;;17.10;99.90;;;;;;4885041;29;20079;-67
2023/08/20 03:22:42;;;;;;;12.27;6.18;;;17.10;99.90;;;;;;4897439;29;20655;-68
2023/08/20 03:25:08;;;;;;;13.85;5.57;;;17.10;99.90;;;;;;4897087;29;20048;-67
2023/08/20 03:27:34;;;;;;;11.52;5.30;;;17.10;99.90;;;;;;4896927;29;20518;-67
2023/08/20 03:30:00;;;;;;;11.27;5.25;;;17.10;99.90;;;;;;4888313;29;20064;-68
2023/08/20 03:32:25;;;;;;;11.32;5.50;;;17.10;99.90;;;;;;4889545;29;20071;-73
2023/08/20 03:34:53;;;;;;;14.57;5.43;;;17.10;99.90;;;;;;4898312;29;20044;-68
2023/08/20 03:37:19;;;;;;;11.77;5.82;;;17.10;99.90;;;;;;4893314;29;20119;-68
2023/08/20 03:39:45;;;;;;;10.85;5.00;;;17.10;99.90;;;;;;4891371;29;20260;-68
2023/08/20 03:42:11;;;;;;;12.90;5.13;;;17.10;99.90;;;;;;4855125;29;20056;-68
2023/08/20 03:44:36;;;;;;;9.40;4.50;;;17.00;99.90;;;;;;4884465;29;20048;-68
2023/08/20 03:47:02;;;;;;;14.32;4.75;;;17.00;99.90;;;;;;4897522;29;20056;-68
2023/08/20 03:49:28;;;;;;;13.25;4.82;;;17.00;99.90;;;;;;4881252;29;20048;-74
2023/08/20 03:51:54;;;;;;;11.82;4.82;;;17.00;99.90;;;;;;4886804;29;20051;-69
2023/08/20 03:54:20;;;;;;;10.50;4.32;;;17.00;99.90;;;;;;4895118;29;20051;-68
2023/08/20 03:56:46;;;;;;;14.32;4.45;;;17.00;99.90;;;;;;4897066;29;20431;-68
2023/08/20 03:59:11;;;;;;;11.93;4.18;;;17.00;99.90;;;;;;4897504;29;20076;-68
2023/08/20 04:01:37;;;;;;;13.18;4.53;;;17.00;99.90;;;;;;4890156;29;20049;-67
2023/08/20 04:04:04;;;;;;;9.85;4.10;;;17.00;99.90;;;;;;4896470;29;20108;-68
2023/08/20 04:06:29;;;;;;;11.88;4.45;;;17.00;99.90;;;;;;4897048;29;20044;-74
2023/08/20 04:08:55;;;;;;;13.70;5.03;;;17.00;99.90;;;;;;4891940;29;20124;-68
2023/08/20 04:11:21;;;;;;;12.35;4.53;;;17.00;99.90;;;;;;4892940;29;20049;-68
2023/08/20 04:13:47;;;;;;;10.32;4.45;;;17.00;99.90;;;;;;4880124;29;20116;-68
2023/08/20 04:16:13;;;;;;;11.20;4.50;;;16.90;99.90;;;;;;4895948;29;20128;-69
2023/08/20 04:18:39;;;;;;;14.73;5.10;;;16.90;99.90;;;;;;4892698;29;20547;-68
2023/08/20 04:21:05;;;;;;;13.50;5.03;;;16.90;99.90;;;;;;4895244;29;20048;-68
2023/08/20 04:23:31;;;;;;;12.98;4.88;;;16.90;99.90;;;;;;4883378;29;20068;-74
2023/08/20 04:25:57;;;;;;;10.85;4.85;;;16.90;99.90;;;;;;4895394;29;20056;-67
2023/08/20 04:28:22;;;;;;;10.50;5.10;;;16.90;99.90;;;;;;4894587;29;20044;-67
2023/08/20 04:30:49;;;;;;;12.15;5.15;;;16.90;99.90;;;;;;4896552;29;20052;-69
2023/08/20 04:33:14;;;;;;;16.30;5.75;;;16.80;99.90;;;;;;4869397;29;20492;-67
2023/08/20 04:35:40;;;;;;;11.45;4.90;;;16.80;99.90;;;;;;4879076;29;20048;-67
2023/08/20 04:38:06;;;;;;;11.85;5.10;;;16.80;99.90;;;;;;4895686;29;20138;-67
2023/08/20 04:40:32;;;;;;;10.52;5.28;;;16.80;99.90;;;;;;4883352;29;20059;-68
2023/08/20 04:42:57;;;;;;;11.93;5.32;;;16.80;99.90;;;;;;4886744;29;20041;-68
2023/08/20 04:45:23;;;;;;;12.55;4.88;;;16.80;99.90;;;;;;4890848;29;20059;-67
2023/08/20 04:47:49;;;;;;;14.27;4.97;;;16.80;99.90;;;;;;4894776;29;20509;-69
2023/08/20 04:50:15;;;;;;;11.90;5.10;;;16.80;99.90;;;;;;4884481;29;20128;-68
2023/08/20 04:52:40;;;;;;;9.55;4.47;;;16.80;99.90;;;;;;4893741;29;20052;-69
2023/08/20 04:55:07;;;;;;;10.00;4.55;;;16.80;99.90;;;;;;4883773;29;20084;-69
2023/08/20 04:57:33;;;;;;;12.52;5.32;;;16.80;99.90;;;;;;4865236;29;20048;-68
2023/08/20 04:59:59;;;;;;;12.35;4.90;;;16.90;99.90;;;;;;4877158;29;20049;-68
2023/08/20 05:02:25;;;;;;;11.82;4.68;;;16.90;99.90;;;;;;4877026;29;20056;-68
2023/08/20 05:04:51;;;;;;;10.27;4.82;;;16.90;99.90;;;;;;4877024;29;20460;-69
2023/08/20 05:07:17;;;;;;;10.55;4.70;;;16.90;99.90;;;;;;4877503;29;20048;-68
2023/08/20 05:09:43;;;;;;;10.45;4.50;;;16.90;99.90;;;;;;4877087;29;20116;-67
2023/08/20 05:12:09;;;;;;;10.40;3.90;;;17.00;99.90;;;;;;4878897;29;20152;-67
2023/08/20 05:14:35;;;;;;;10.13;4.53;;;17.00;99.90;;;;;;4878482;29;20511;-68
2023/08/20 05:17:00;;;;;;;11.77;5.20;;;17.00;99.90;;;;;;4862736;29;20100;-68
2023/08/20 05:19:26;;;;;;;13.40;5.05;;;17.10;99.90;;;;;;4877431;29;20081;-68
2023/08/20 05:21:55;;;;;;;10.57;4.18;;;17.10;99.90;;;;;;4882429;29;20055;-68
2023/08/20 05:24:22;;;;;;;11.52;4.57;;;17.10;99.90;;;;;;4875650;29;20087;-68
2023/08/20 05:27:05;;;;;;;10.15;4.32;;;17.20;99.90;;;;;;4877281;29;20051;-68
2023/08/20 05:29:31;;;;;;;12.00;4.50;;;17.30;99.90;;;;;;4881419;29;20084;-67
2023/08/20 05:31:57;;;;;;;11.50;4.10;;;17.40;99.90;;;;;;4872084;29;20081;-68
2023/08/20 05:34:22;;;;;;;9.70;4.45;;;17.40;99.90;;;;;;4894141;29;20091;-68
2023/08/20 05:36:48;;;;;;;7.47;4.13;;;17.70;99.90;;;;;;4879702;29;20084;-68
2023/08/20 05:39:14;;;;;;;11.60;3.92;;;18.20;99.90;;;;;;4878475;29;20049;-66
2023/08/20 05:41:39;;;;;;;11.88;3.90;;;19.00;99.90;;;;;;4887330;29;20044;-67
2023/08/20 05:44:05;;;;;;;14.13;4.13;;;19.90;99.90;;;;;;4889858;29;20191;-67
2023/08/20 05:46:31;;;;;;;8.70;3.88;;;20.70;99.90;;;;;;4879242;29;20059;-67
2023/08/20 05:48:56;;;;;;;9.13;3.72;;;21.40;99.90;;;;;;4877831;29;20087;-67
2023/08/20 05:51:22;;;;;;;8.38;3.55;;;22.00;99.90;;;;;;4890033;29;20053;-67
2023/08/20 05:53:48;;;;;;;11.85;3.67;;;22.60;99.90;;;;;;4901439;29;20068;-67
2023/08/20 05:56:13;;;;;;;9.25;3.33;;;23.20;99.90;;;;;;4879132;29;20077;-68
2023/08/20 05:58:39;;;;;;;7.75;3.00;;;23.80;99.90;;;;;;4880853;29;20049;-68
2023/08/20 06:01:05;;;;;;;8.77;3.40;;;24.50;99.90;;;;;;4880058;29;20124;-68
2023/08/20 06:03:31;;;;;;;9.65;3.42;;;25.10;99.90;;;;;;4881527;29;20049;-68
2023/08/20 06:05:59;;;;;;;6.57;2.88;;;25.50;99.90;;;;;;4880312;29;20131;-68
2023/08/20 06:08:25;;;;;;;9.50;2.72;;;25.90;99.90;;;;;;4880515;29;20105;-68
2023/08/20 06:10:51;;;;;;;8.23;3.30;;;26.40;99.90;;;;;;4879432;29;20476;-67
2023/08/20 06:13:16;;;;;;;9.95;2.95;;;26.70;99.90;;;;;;4880519;29;20136;-67
2023/08/20 06:15:42;;;;;;;7.40;2.83;;;27.00;99.90;;;;;;4880460;29;20091;-68
2023/08/20 06:18:08;;;;;;;8.95;3.13;;;27.30;99.90;;;;;;4879651;29;20077;-68
2023/08/20 06:20:34;;;;;;;6.93;2.80;;;27.50;99.90;;;;;;4880131;29;20351;-67
2023/08/20 06:22:59;;;;;;;11.60;3.60;;;27.80;99.90;;;;;;4881621;29;20089;-68
2023/08/20 06:25:25;;;;;;;6.80;2.85;;;28.00;99.90;;;;;;4887837;29;20067;-68
2023/08/20 06:27:51;;;;;;;8.43;2.90;;;28.30;99.90;;;;;;4881986;29;20476;-70
2023/08/20 06:30:16;;;;;;;7.28;2.97;;;28.40;99.90;;;;;;4879202;29;20101;-69
2023/08/20 06:32:44;;;;;;;8.30;3.00;;;28.60;99.90;;;;;;4879225;29;20044;-67
2023/08/20 06:35:10;;;;;;;9.23;3.00;;;28.60;99.90;;;;;;4888684;29;20258;-68
2023/08/20 06:37:36;;;;;;;8.32;2.80;;;28.60;99.90;;;;;;4879951;29;20487;-67
2023/08/20 06:40:01;;;;;;;10.75;3.50;;;28.50;99.90;;;;;;4879345;29;20128;-69
2023/08/20 06:42:27;;;;;;;7.78;3.20;;;28.50;99.90;;;;;;4895057;29;20439;-68
2023/08/20 06:44:53;;;;;;;11.90;3.22;;;28.70;99.90;;;;;;4898355;29;20487;-71
2023/08/20 06:47:18;;;;;;;8.55;2.85;;;28.90;99.90;;;;;;4898663;29;20045;-68
2023/08/20 06:49:44;;;;;;;11.95;3.25;;;28.90;99.80;;;;;;4892381;29;20045;-68
2023/08/20 06:52:10;;;;;;;9.48;3.10;;;29.00;99.80;;;;;;4890940;29;20403;-68
2023/08/20 06:54:36;;;;;;;8.00;3.00;;;29.00;99.60;;;;;;4895842;29;20380;-68
2023/08/20 06:57:02;;;;;;;10.88;2.92;;;29.20;99.40;;;;;;4889474;29;20049;-67
2023/08/20 06:59:27;;;;;;;8.75;2.75;;;29.60;99.60;;;;;;4863882;29;20056;-68
2023/08/20 07:01:53;;;;;;;9.35;2.60;;;29.80;99.20;;;;;;4886892;29;20443;-74
2023/08/20 07:04:19;;;;;;;8.73;2.88;;;30.20;99.10;;;;;;4898140;29;20514;-67
2023/08/20 07:06:45;;;;;;;9.32;3.38;;;30.30;98.80;;;;;;4889420;29;20056;-67
2023/08/20 07:09:10;;;;;;;9.85;3.00;;;30.60;98.50;;;;;;4897931;29;20531;-67
2023/08/20 07:11:36;;;;;;;10.40;2.83;;;30.90;98.30;;;;;;4882276;29;20079;-67
2023/08/20 07:14:02;;;;;;;8.45;3.00;;;31.10;97.90;;;;;;4873232;29;20053;-68
2023/08/20 07:16:28;;;;;;;9.32;2.90;;;31.30;97.80;;;;;;4892330;29;20080;-68
2023/08/20 07:18:54;;;;;;;10.90;3.00;;;31.50;97.40;;;;;;4893750;29;20095;-68
2023/08/20 07:21:19;;;;;;;10.50;2.80;;;31.40;97.60;;;;;;4887203;29;20185;-68
2023/08/20 07:23:45;;;;;;;9.52;2.67;;;31.50;97.40;;;;;;4894027;29;20056;-68
2023/08/20 07:26:12;;;;;;;8.10;2.65;;;31.50;96.60;;;;;;4896419;29;20406;-68
2023/08/20 07:28:56;;;;;;;9.85;2.97;;;31.50;97.00;;;;;;4897867;29;20052;-67
2023/08/20 07:31:30;;;;;;;13.18;2.88;;;31.70;97.00;;;;;;4890956;29;20077;-67
2023/08/20 07:33:56;;;;;;;8.05;2.72;;;31.90;96.50;;;;;;4874712;29;20088;-67
2023/08/20 07:36:23;;;;;;;12.88;2.97;;;32.00;96.50;;;;;;4880435;29;20061;-68
2023/08/20 07:38:53;;;;;;;10.43;3.13;;;32.10;96.30;;;;;;4861572;29;20045;-68
2023/08/20 07:41:22;;;;;;;8.85;2.60;;;32.20;96.30;;;;;;4882991;29;20114;-69
2023/08/20 07:43:49;;;;;;;11.38;3.17;;;32.50;96.10;;;;;;4873488;29;20108;-68
2023/08/20 07:46:15;;;;;;;7.20;2.58;;;32.80;95.80;;;;;;4880041;29;20041;-69
2023/08/20 07:48:42;;;;;;;11.82;3.28;;;33.10;95.70;;;;;;4878082;29;20145;-68
2023/08/20 07:51:08;;;;;;;8.65;2.67;;;33.30;95.60;;;;;;4877295;29;20052;-68
2023/08/20 07:53:34;;;;;;;8.18;2.72;;;33.30;95.10;;;;;;4880207;29;20067;-68
2023/08/20 07:56:00;;;;;;;9.63;2.72;;;33.40;95.20;;;;;;4877774;29;20070;-74
2023/08/20 07:58:26;;;;;;;8.10;2.70;;;33.60;94.80;;;;;;4878615;29;20488;-73
2023/08/20 08:00:52;;;;;;;8.48;2.47;;;33.60;94.90;;;;;;4866161;29;20064;-70
2023/08/20 08:03:18;;;;;;;10.93;2.97;;;33.60;94.50;;;;;;4866626;29;20137;-71
2023/08/20 08:05:48;;;;;;;10.40;2.83;;;33.90;94.50;;;;;;4877793;29;20080;-70
2023/08/20 08:08:15;;;;;;;9.63;2.78;;;34.10;94.00;;;;;;4878150;29;20052;-71
2023/08/20 08:10:40;;;;;;;9.20;2.55;;;34.40;93.40;;;;;;4877498;29;20048;-70
2023/08/20 08:13:06;;;;;;;10.55;2.75;;;34.40;93.80;;;;;;4876366;29;20144;-71
2023/08/20 08:15:32;;;;;;;11.77;2.92;;;34.70;93.90;;;;;;4877642;29;20045;-70
2023/08/20 08:17:58;;;;;;;8.55;2.50;;;35.00;93.60;;;;;;4877742;29;20049;-71
2023/08/20 08:20:23;;;;;;;14.65;2.97;;;35.40;93.50;;;;;;4859958;29;20068;-70
2023/08/20 08:22:49;;;;;;;10.48;2.70;;;35.60;92.90;;;;;;4876955;29;20057;-72
2023/08/20 08:25:15;;;;;;;9.45;2.88;;;35.80;92.70;;;;;;4878471;29;20113;-72
2023/08/20 08:27:40;;;;;;;6.70;2.40;;;35.80;92.40;;;;;;4877924;29;20064;-71
2023/08/20 08:30:07;;;;;;;9.57;2.67;;;36.00;92.60;;;;;;4876818;29;20530;-74
2023/08/20 08:32:32;;;;;;;9.75;2.60;;;36.10;92.10;;;;;;4876219;29;20049;-71
2023/08/20 08:34:58;;;;;;;7.15;2.28;;;36.30;91.90;;;;;;4876533;29;20068;-71
2023/08/20 08:37:24;;;;;;;7.30;2.35;;;36.10;91.50;;;;;;4884025;29;20460;-73
2023/08/20 08:39:49;;;;;;;8.27;2.55;;;36.20;91.50;;;;;;4878137;29;20048;-71
2023/08/20 08:42:17;;;;;;;5.93;2.15;;;36.10;91.60;;;;;;4879622;29;20084;-68
2023/08/20 08:44:45;;;;;;;8.48;2.65;;;36.10;91.30;;;;;;4878047;29;20125;-68
2023/08/20 08:47:11;;;;;;;5.32;2.03;;;36.20;91.50;;;;;;4874912;29;20048;-70
2023/08/20 08:49:37;;;;;;;8.20;2.63;;;36.10;91.30;;;;;;4875313;29;20052;-67
2023/08/20 08:52:04;;;;;;;8.40;2.17;;;36.20;91.30;;;;;;4868401;29;20112;-68
2023/08/20 08:54:32;;;;;;;9.27;2.55;;;36.30;91.20;;;;;;4873780;29;20055;-70
2023/08/20 08:56:58;;;;;;;7.25;2.33;;;36.30;91.00;;;;;;4877028;29;20052;-70
2023/08/20 08:59:25;;;;;;;8.98;2.25;;;36.50;90.70;;;;;;4873220;29;20049;-69
2023/08/20 09:01:50;;;;;;;8.63;2.47;;;36.40;90.30;;;;;;4871949;29;20091;-70
2023/08/20 09:04:16;;;;;;;9.10;2.58;;;36.30;90.40;;;;;;4871072;29;20116;-71
2023/08/20 09:06:46;;;;;;;9.15;2.38;;;36.10;90.50;;;;;;4873338;29;20067;-70
2023/08/20 09:09:12;;;;;;;7.80;2.38;;;36.10;90.00;;;;;;4871859;29;20049;-76
2023/08/20 09:11:38;;;;;;;6.93;2.20;;;35.80;90.40;;;;;;4878735;29;20440;-69
2023/08/20 09:14:04;;;;;;;6.13;1.95;;;35.80;90.50;;;;;;4885744;29;20052;-70
2023/08/20 09:16:31;;;;;;;6.82;1.95;;;35.90;90.50;;;;;;4872893;29;20084;-71
2023/08/20 09:19:00;;;;;;;9.75;1.98;;;35.80;90.20;;;;;;4872689;29;20049;-71
2023/08/20 09:21:29;;;;;;;7.78;2.35;;;35.70;89.50;;;;;;4875711;29;20445;-70
2023/08/20 09:23:56;;;;;;;5.20;1.80;;;35.90;89.90;;;;;;4881800;29;20049;-70
2023/08/20 09:26:22;;;;;;;6.53;2.28;;;35.90;90.30;;;;;;4877693;29;20344;-70
2023/08/20 09:28:48;;;;;;;9.38;2.05;;;35.90;90.20;;;;;;4878381;29;20052;-71
2023/08/20 09:31:14;;;;;;;6.25;1.65;;;35.90;90.00;;;;;;4877709;29;20095;-75
2023/08/20 09:33:54;;;;;;;6.50;1.83;;;35.80;89.60;;;;;;4878622;29;20084;-69
2023/08/20 09:36:30;;;;;;;7.20;1.90;;;35.60;88.60;;;;;;4862894;29;20067;-68
2023/08/20 09:38:56;;;;;;;7.85;2.10;;;35.40;89.00;;;;;;4877840;29;20300;-70
2023/08/20 09:41:23;;;;;;;7.60;2.25;;;35.30;89.90;;;;;;4888216;29;20128;-68
2023/08/20 09:44:01;;;;;;;7.95;2.38;;;35.10;90.20;;;;;;4878414;29;20141;-69
2023/08/20 09:46:31;;;;;;;10.15;2.35;;;34.80;90.10;;;;;;4873269;29;20064;-69
2023/08/20 09:48:57;;;;;;;9.27;1.98;;;34.30;90.60;;;;;;4877097;29;20490;-69
2023/08/20 09:51:26;;;;;;;6.70;2.28;;;33.60;91.10;;;;;;4874740;29;20100;-68
2023/08/20 09:54:21;;;;;;;7.40;2.20;;;33.20;91.20;;;;;;4875946;29;20041;-68
2023/08/20 09:56:53;;;;;;;5.63;1.73;;;32.80;91.20;;;;;;4877546;29;20060;-67
2023/08/20 09:59:19;;;;;;;6.32;1.95;;;32.50;91.40;;;;;;4878149;29;20116;-71
2023/08/20 10:01:47;;;;;;;8.18;1.88;;;32.30;91.70;;;;;;4879798;29;20049;-68
2023/08/20 10:04:15;;;;;;;5.80;2.00;;;32.30;91.70;;;;;;4879231;29;20052;-67
2023/08/20 10:06:42;;;;;;;7.50;2.10;;;31.90;92.20;;;;;;4879830;29;20053;-67
2023/08/20 10:09:09;;;;;;;6.97;2.10;;;31.70;92.00;;;;;;4879037;29;20053;-67
2023/08/20 10:11:37;;;;;;;10.20;2.50;;;31.50;92.40;;;;;;4878359;29;20055;-68
2023/08/20 10:14:03;;;;;;;7.88;2.45;;;31.40;92.10;;;;;;4878755;29;21986;-68
2023/08/20 10:16:29;;;;;;;7.60;2.25;;;31.30;92.60;;;;;;4877014;29;20056;-69
2023/08/20 10:18:58;;;;;;;9.07;2.33;;;31.10;93.10;;;;;;4878793;29;20121;-69
2023/08/20 10:21:25;;;;;;;6.30;2.10;;;31.20;93.40;;;;;;4878921;29;20045;-68
2023/08/20 10:23:51;;;;;;;7.78;2.03;;;31.30;93.20;;;;;;4880668;29;20503;-68
2023/08/20 10:26:21;;;;;;;6.57;1.90;;;31.20;92.80;;;;;;4881332;29;20090;-72
2023/08/20 10:28:47;;;;;;;5.50;1.85;;;31.00;92.10;;;;;;4880042;29;20056;-68
2023/08/20 10:31:16;;;;;;;7.07;1.90;;;30.90;92.70;;;;;;4877885;29;20470;-72
2023/08/20 10:33:56;;;;;;;7.43;2.28;;;30.60;93.00;;;;;;4877305;29;20596;-67
2023/08/20 10:36:30;;;;;;;6.60;2.13;;;30.50;92.80;;;;;;4877330;29;20484;-74
2023/08/20 10:38:58;;;;;;;8.00;2.55;;;30.50;92.70;;;;;;4878736;29;20568;-68
2023/08/20 10:41:28;;;;;;;7.55;1.90;;;30.50;92.80;;;;;;4880117;29;20052;-77
2023/08/20 10:44:00;;;;;;;6.47;2.25;;;30.40;93.40;;;;;;4879863;29;20060;-73
2023/08/20 10:46:30;;;;;;;7.25;2.15;;;30.50;93.20;;;;;;4880287;29;20052;-69
2023/08/20 10:48:58;;;;;;;6.80;2.10;;;30.50;93.10;;;;;;4878751;29;20080;-69
2023/08/20 10:51:25;;;;;;;6.97;2.00;;;30.50;93.10;;;;;;4873238;29;20052;-75
2023/08/20 10:54:00;;;;;;;5.82;1.92;;;30.60;93.20;;;;;;4876813;29;20057;-69
2023/08/20 10:56:38;;;;;;;10.20;2.03;;;30.30;92.20;;;;;;4874669;29;20385;-77
2023/08/20 10:59:25;;;;;;;6.45;1.80;;;30.10;92.50;;;;;;4875567;29;20507;-68
2023/08/20 11:01:52;;;;;;;7.15;2.08;;;30.00;92.30;;;;;;4874191;29;20061;-68
2023/08/20 11:04:21;;;;;;;5.40;1.70;;;30.00;92.40;;;;;;4876209;29;20177;-67
2023/08/20 11:06:49;;;;;;;6.75;2.08;;;30.10;92.70;;;;;;4879503;29;20045;-68
2023/08/20 11:09:16;;;;;;;7.63;2.15;;;30.10;92.90;;;;;;4878653;29;20523;-68
2023/08/20 11:11:42;;;;;;;7.30;1.95;;;30.00;93.10;;;;;;4877401;29;20373;-66
2023/08/20 11:14:13;;;;;;;6.10;2.20;;;29.90;93.20;;;;;;4878818;29;20045;-67
2023/08/20 11:16:40;;;;;;;6.00;1.65;;;30.10;92.90;;;;;;4874957;29;20084;-67
2023/08/20 11:19:09;;;;;;;7.93;1.70;;;30.10;93.00;;;;;;4860786;29;20045;-68
2023/08/20 11:21:35;;;;;;;5.22;1.55;;;30.10;92.30;;;;;;4876695;29;20057;-67
2023/08/20 11:24:02;;;;;;;5.78;1.80;;;30.00;91.80;;;;;;4878334;29;20460;-68
2023/08/20 11:26:28;;;;;;;9.07;1.80;;;30.00;92.30;;;;;;4877056;29;20076;-66
2023/08/20 11:28:53;;;;;;;3.42;1.40;;;29.90;91.60;;;;;;4875809;29;20132;-66
2023/08/20 11:31:19;;;;;;;5.65;1.65;;;29.90;91.70;;;;;;4873276;29;20052;-65
2023/08/20 11:33:47;;;;;;;4.40;1.50;;;29.70;91.90;;;;;;4877184;29;20527;-67
2023/08/20 11:36:16;;;;;;;4.22;1.20;;;29.70;92.00;;;;;;4860520;29;20053;-66
2023/08/20 11:38:42;;;;;;;5.00;1.60;;;29.70;92.50;;;;;;4874666;29;20053;-72
2023/08/20 11:41:09;;;;;;;4.88;1.75;;;29.70;92.50;;;;;;4878258;29;20054;-68
2023/08/20 11:43:34;;;;;;;9.65;1.92;;;29.80;92.90;;;;;;4875748;29;20510;-68
2023/08/20 11:46:00;;;;;;;8.80;2.10;;;29.80;92.90;;;;;;4878356;29;20045;-67
2023/08/20 11:48:26;;;;;;;5.72;1.88;;;29.60;93.10;;;;;;4876807;29;20133;-68
2023/08/20 11:50:56;;;;;;;7.85;1.52;;;29.30;92.80;;;;;;4877232;29;20049;-68
2023/08/20 11:53:23;;;;;;;4.15;1.33;;;29.20;92.80;;;;;;4880299;29;20499;-67
2023/08/20 11:55:49;;;;;;;4.38;1.48;;;29.10;92.40;;;;;;4875493;29;20104;-67
2023/08/20 11:58:15;;;;;;;7.45;1.73;;;29.10;92.40;;;;;;4878346;29;20492;-68
2023/08/20 12:00:41;;;;;;;6.68;1.70;;;29.00;92.80;;;;;;4859621;29;20041;-68
2023/08/20 12:03:08;;;;;;;4.22;1.42;;;28.80;93.10;;;;;;4875629;29;20064;-66
2023/08/20 12:05:34;;;;;;;4.47;1.40;;;28.90;93.20;;;;;;4876865;29;20044;-77
2023/08/20 12:08:02;;;;;;;5.95;1.60;;;28.90;92.50;;;;;;4875156;29;20105;-69
2023/08/20 12:10:29;;;;;;;5.15;1.58;;;28.80;92.30;;;;;;4876523;29;20053;-68
2023/08/20 12:12:57;;;;;;;5.75;1.48;;;28.90;92.50;;;;;;4875782;29;20127;-67
2023/08/20 12:15:24;;;;;;;3.92;1.40;;;28.90;92.80;;;;;;4872730;29;20045;-67
2023/08/20 12:18:01;;;;;;;6.53;1.83;;;29.00;93.10;;;;;;4875666;29;20045;-70
2023/08/20 12:20:29;;;;;;;7.30;2.05;;;29.00;93.00;;;;;;4874114;29;20076;-68
2023/08/20 12:23:01;;;;;;;9.18;1.80;;;29.00;93.20;;;;;;4875704;29;20060;-68
2023/08/20 12:25:29;;;;;;;5.82;1.80;;;29.10;93.20;;;;;;4875543;29;20057;-72
2023/08/20 12:27:56;;;;;;;9.70;1.98;;;29.10;92.80;;;;;;4876237;29;20048;-67
2023/08/20 12:30:22;;;;;;;5.07;1.55;;;29.10;92.70;;;;;;4876916;29;20052;-69
2023/08/20 12:32:48;;;;;;;5.45;1.55;;;29.10;92.80;;;;;;4876301;29;20071;-72
2023/08/20 12:35:13;;;;;;;6.00;1.60;;;29.10;92.80;;;;;;4875194;29;20483;-68
2023/08/20 12:37:39;;;;;;;7.75;1.70;;;29.10;92.90;;;;;;4875187;29;20391;-75
2023/08/20 12:40:10;;;;;;;6.82;1.83;;;29.00;92.90;;;;;;4876505;29;20116;-68
2023/08/20 12:42:38;;;;;;;6.60;1.58;;;28.90;93.00;;;;;;4874791;29;20037;-68